Paphos

Airport
ICAO code: 
LCPH
Summary
ICAO Region: 
EUR
Territory: 
Location: 
Timi and Acheleia,
Coordinates: 
Aerial View: 
34° 43' 4.795" N, 32° 29' 8.515" E
Metar
Observation
LCPH 252000Z 35003KT CAVOK 22/19 Q1016
Station
Paphos Airport
Date/Time
2022-05-25 20:00:00
Wind direction
350°
Wind speed
03 kts
Lowest cloud amount
clouds and visibility OK
Temperature
22°C
Dew point
19°C
Humidity
83%
QNH
1016 hPa
Weather condition
n/a

Description

Paphos International Airport is located 6.5 km southeast from the city of Paphos, Cyprus. It is the country's second largest airport, (after Larnaca International Airport). Paphos airport is commonly used by tourists on holiday in western Cyprus, providing access to popular resorts such as Coral Bay, Limassol and Paphos itself.

Climatology

Dry-summer subtropical ”Mediterranean" climate (Köppen climate classification Csa) - characterized by hot, dry summers and mild winters. During the summer, subtropical high pressure cells dominate, making rainfall unlikely except for the occasional thunderstorm. In the winter, periodic storms bring rain (snow at higher elevations).

Runways

Designator Length Width Surface Rops
11/29 2700 45 ASP Yes/Yes
Airport map: 
Aerial View: 

SKYbrary Partners:

Safety knowledge contributed by: